Time;durP1;ratioP1;P1;durP2;ratioP2;P2;SDS_P1;SDS_P2;PMS_P1;PMS_P2;Temp;Humidity;BMP_temperature;BMP_pressure;BME280_temperature;BME280_humidity;BME280_pressure;Samples;Min_cycle;Max_cycle;Signal;HPM_P1;HPM_P2
2021/09/21 00:00:45;;;;;;;;;29.00;28.00;;;;;;;;5009464;28;51255;-53
2021/09/21 00:03:11;;;;;;;;;33.50;29.50;;;;;;;;5003372;28;52701;-54
2021/09/21 00:05:36;;;;;;;;;30.75;29.75;;;;;;;;5011677;28;51118;-54
2021/09/21 00:08:02;;;;;;;;;36.75;31.00;;;;;;;;5010244;28;51024;-54
2021/09/21 00:10:27;;;;;;;;;30.25;29.00;;;;;;;;5012959;28;51048;-54
2021/09/21 00:12:52;;;;;;;;;25.00;24.25;;;;;;;;5019104;28;51798;-54
2021/09/21 00:15:18;;;;;;;;;31.75;28.00;;;;;;;;5012297;28;51154;-55
2021/09/21 00:17:45;;;;;;;;;28.25;26.25;;;;;;;;5007000;28;51133;-53
2021/09/21 00:20:10;;;;;;;;;28.25;25.75;;;;;;;;5009775;28;51246;-54
2021/09/21 00:22:35;;;;;;;;;33.00;30.25;;;;;;;;5015086;28;51744;-53
2021/09/21 00:25:02;;;;;;;;;33.00;31.00;;;;;;;;5012482;28;50864;-54
2021/09/21 00:27:27;;;;;;;;;31.00;27.75;;;;;;;;5017455;28;50864;-54
2021/09/21 00:29:52;;;;;;;;;29.75;28.50;;;;;;;;5014866;28;51035;-54
2021/09/21 00:32:24;;;;;;;;;33.00;31.00;;;;;;;;5011976;28;51704;-54
2021/09/21 00:34:49;;;;;;;;;33.75;32.00;;;;;;;;5015792;28;51112;-54
2021/09/21 00:37:15;;;;;;;;;34.50;30.50;;;;;;;;5012678;28;51026;-54
2021/09/21 00:39:41;;;;;;;;;32.50;31.25;;;;;;;;5013188;28;51043;-55
2021/09/21 00:42:06;;;;;;;;;33.50;30.75;;;;;;;;5018283;28;52282;-54
2021/09/21 00:44:32;;;;;;;;;35.25;30.25;;;;;;;;5012735;28;51016;-54
2021/09/21 00:46:57;;;;;;;;;33.75;31.25;;;;;;;;5012861;28;50923;-54
2021/09/21 00:49:22;;;;;;;;;32.00;29.25;;;;;;;;5018879;28;51047;-54
2021/09/21 00:51:48;;;;;;;;;35.25;31.25;;;;;;;;5013272;28;50955;-54
2021/09/21 00:54:13;;;;;;;;;33.25;31.00;;;;;;;;5014930;28;52676;-54
2021/09/21 00:56:39;;;;;;;;;32.50;31.00;;;;;;;;5012641;28;50878;-54
2021/09/21 00:59:04;;;;;;;;;35.25;30.75;;;;;;;;5016824;28;51350;-54
2021/09/21 01:01:29;;;;;;;;;36.75;32.00;;;;;;;;5011937;28;51036;-54
2021/09/21 01:03:54;;;;;;;;;40.75;35.00;;;;;;;;5010886;28;51345;-54
2021/09/21 01:06:20;;;;;;;;;33.25;31.00;;;;;;;;5016818;28;51159;-55
2021/09/21 01:08:45;;;;;;;;;31.75;30.25;;;;;;;;5012671;28;51259;-54
2021/09/21 01:11:11;;;;;;;;;36.25;32.25;;;;;;;;5010161;28;51582;-54
2021/09/21 01:13:37;;;;;;;;;34.50;32.00;;;;;;;;5011739;28;50977;-55
2021/09/21 01:16:02;;;;;;;;;32.00;30.25;;;;;;;;5012894;28;51291;-54
2021/09/21 01:18:28;;;;;;;;;35.50;31.50;;;;;;;;5015372;28;51281;-54
2021/09/21 01:21:00;;;;;;;;;41.00;34.00;;;;;;;;5019825;28;51719;-53
2021/09/21 01:23:25;;;;;;;;;33.75;32.00;;;;;;;;5003239;28;51171;-53
2021/09/21 01:25:50;;;;;;;;;35.50;32.25;;;;;;;;5012117;28;51149;-54
2021/09/21 01:28:15;;;;;;;;;39.25;33.25;;;;;;;;5016246;28;51318;-52
2021/09/21 01:30:41;;;;;;;;;34.00;32.00;;;;;;;;4993593;28;52088;-54
2021/09/21 01:33:06;;;;;;;;;35.50;33.00;;;;;;;;5014922;28;51130;-54
2021/09/21 01:35:31;;;;;;;;;37.75;33.25;;;;;;;;5015163;28;51128;-52
2021/09/21 01:37:56;;;;;;;;;42.75;34.25;;;;;;;;5012216;28;51307;-53
2021/09/21 01:40:21;;;;;;;;;36.25;34.00;;;;;;;;5010857;28;51830;-52
2021/09/21 01:42:48;;;;;;;;;36.00;31.50;;;;;;;;5019660;28;51056;-54
2021/09/21 01:45:14;;;;;;;;;37.50;32.00;;;;;;;;5018012;28;51348;-54
2021/09/21 01:47:40;;;;;;;;;45.50;34.75;;;;;;;;5011594;28;51408;-54
2021/09/21 01:52:43;;;;;;;;;37.50;32.50;;;;;;;;5017038;28;52508;-54
2021/09/21 02:00:20;;;;;;;;;33.75;30.50;;;;;;;;5014047;28;51203;-54
2021/09/21 02:02:45;;;;;;;;;38.50;35.00;;;;;;;;5015131;28;50995;-54
2021/09/21 02:05:10;;;;;;;;;37.25;33.75;;;;;;;;5012683;28;51100;-54
2021/09/21 02:07:36;;;;;;;;;35.25;32.75;;;;;;;;5013309;28;51002;-54
2021/09/21 02:10:02;;;;;;;;;39.75;34.00;;;;;;;;5020036;28;51573;-53
2021/09/21 02:12:28;;;;;;;;;43.50;35.25;;;;;;;;5017186;28;50993;-53
2021/09/21 02:14:53;;;;;;;;;33.25;31.75;;;;;;;;5014046;28;51203;-53
2021/09/21 02:17:19;;;;;;;;;34.50;33.00;;;;;;;;5014499;28;51125;-54
2021/09/21 02:19:44;;;;;;;;;35.00;33.25;;;;;;;;5018687;28;50910;-54
2021/09/21 02:22:09;;;;;;;;;38.50;34.50;;;;;;;;5019879;28;51080;-54
2021/09/21 02:24:34;;;;;;;;;41.75;35.50;;;;;;;;5013330;28;51240;-54
2021/09/21 02:26:59;;;;;;;;;43.50;37.75;;;;;;;;5016664;28;51138;-55
2021/09/21 02:29:26;;;;;;;;;40.50;34.75;;;;;;;;5023877;28;51892;-55
2021/09/21 02:31:51;;;;;;;;;38.00;33.75;;;;;;;;5013825;28;51080;-55
2021/09/21 02:34:17;;;;;;;;;48.00;37.25;;;;;;;;5013078;28;51168;-54
2021/09/21 02:36:42;;;;;;;;;38.75;33.50;;;;;;;;5014546;28;50891;-54
2021/09/21 02:39:08;;;;;;;;;42.75;36.00;;;;;;;;5014740;28;51630;-54
2021/09/21 02:41:34;;;;;;;;;40.00;34.25;;;;;;;;5014233;28;51009;-55
2021/09/21 02:43:59;;;;;;;;;40.00;35.25;;;;;;;;5013808;28;51338;-54
2021/09/21 02:46:24;;;;;;;;;42.75;37.00;;;;;;;;5012517;28;50993;-55
2021/09/21 02:48:49;;;;;;;;;39.50;35.00;;;;;;;;4997408;28;51301;-54
2021/09/21 02:51:14;;;;;;;;;41.25;36.00;;;;;;;;5014622;28;51098;-52
2021/09/21 02:53:40;;;;;;;;;39.75;34.50;;;;;;;;5016570;28;51006;-54
2021/09/21 02:56:05;;;;;;;;;43.00;35.00;;;;;;;;5015935;28;50990;-53
2021/09/21 02:58:30;;;;;;;;;41.25;36.00;;;;;;;;5013982;28;52570;-54
2021/09/21 03:00:56;;;;;;;;;45.00;35.75;;;;;;;;5020728;28;51137;-53
2021/09/21 03:03:25;;;;;;;;;39.25;35.25;;;;;;;;5013431;28;51341;-55
2021/09/21 03:06:04;;;;;;;;;43.00;35.25;;;;;;;;5012611;28;51848;-54
2021/09/21 03:08:32;;;;;;;;;45.00;36.75;;;;;;;;5008052;28;52878;-56
2021/09/21 03:11:17;;;;;;;;;40.75;34.50;;;;;;;;5020198;28;51106;-53
2021/09/21 03:18:52;;;;;;;;;47.00;39.25;;;;;;;;5008632;28;51601;-55
2021/09/21 03:21:17;;;;;;;;;47.50;37.25;;;;;;;;5008439;28;51300;-54
2021/09/21 03:23:42;;;;;;;;;44.50;37.25;;;;;;;;5014281;28;51255;-52
2021/09/21 03:26:08;;;;;;;;;40.25;35.25;;;;;;;;5013073;28;51301;-54
2021/09/21 03:28:33;;;;;;;;;44.75;37.00;;;;;;;;4994758;28;51878;-54
2021/09/21 03:30:58;;;;;;;;;48.00;38.75;;;;;;;;5019138;28;50915;-54
2021/09/21 03:33:23;;;;;;;;;42.25;37.50;;;;;;;;5009352;28;51046;-53
2021/09/21 03:35:49;;;;;;;;;47.50;38.75;;;;;;;;5016281;28;51245;-53
2021/09/21 03:38:14;;;;;;;;;45.25;38.75;;;;;;;;5013855;28;50891;-54
2021/09/21 03:40:40;;;;;;;;;48.75;38.50;;;;;;;;5012592;28;50933;-54
2021/09/21 03:43:05;;;;;;;;;48.25;39.75;;;;;;;;5017768;28;51170;-53
2021/09/21 03:45:30;;;;;;;;;48.25;40.00;;;;;;;;5015541;28;51106;-54
2021/09/21 03:47:56;;;;;;;;;44.75;37.25;;;;;;;;5006520;28;51812;-52
2021/09/21 03:50:22;;;;;;;;;45.00;37.75;;;;;;;;4994236;28;52569;-53
2021/09/21 03:52:47;;;;;;;;;45.75;38.00;;;;;;;;5018328;28;51069;-54
2021/09/21 03:55:14;;;;;;;;;49.50;41.25;;;;;;;;5013497;28;51168;-54
2021/09/21 03:57:39;;;;;;;;;46.25;38.00;;;;;;;;5012988;28;52642;-57
2021/09/21 04:00:05;;;;;;;;;49.75;41.75;;;;;;;;5016506;28;51202;-55
2021/09/21 04:02:30;;;;;;;;;45.75;38.50;;;;;;;;5013222;28;50968;-53
2021/09/21 04:04:55;;;;;;;;;47.25;40.00;;;;;;;;5017432;28;51166;-54
2021/09/21 04:07:21;;;;;;;;;49.00;40.50;;;;;;;;5011563;28;51113;-54
2021/09/21 04:09:46;;;;;;;;;50.75;41.00;;;;;;;;5013193;28;51057;-54
2021/09/21 04:12:11;;;;;;;;;47.75;40.00;;;;;;;;5011037;28;51596;-54
2021/09/21 04:14:36;;;;;;;;;46.00;39.25;;;;;;;;5019255;28;51059;-54
2021/09/21 04:17:02;;;;;;;;;48.50;39.50;;;;;;;;5011728;28;51796;-54
2021/09/21 04:19:27;;;;;;;;;46.25;38.75;;;;;;;;4993382;28;50934;-54
2021/09/21 04:21:52;;;;;;;;;51.00;41.25;;;;;;;;5018285;28;51028;-54
2021/09/21 04:24:17;;;;;;;;;45.75;39.75;;;;;;;;5008490;28;51093;-54
2021/09/21 04:26:43;;;;;;;;;47.00;37.25;;;;;;;;5020640;28;51081;-54
2021/09/21 04:29:09;;;;;;;;;49.50;40.25;;;;;;;;5013049;28;51118;-54
2021/09/21 04:31:38;;;;;;;;;51.00;42.25;;;;;;;;5011629;28;51245;-54
2021/09/21 04:34:03;;;;;;;;;50.50;40.50;;;;;;;;5019132;28;51327;-54
2021/09/21 04:36:28;;;;;;;;;53.25;43.75;;;;;;;;5012149;28;52699;-53
2021/09/21 04:38:53;;;;;;;;;53.00;42.50;;;;;;;;5012129;28;51075;-55
2021/09/21 04:41:19;;;;;;;;;48.75;40.25;;;;;;;;4982574;28;51227;-53
2021/09/21 04:43:44;;;;;;;;;44.50;38.75;;;;;;;;5013231;28;51027;-53
2021/09/21 04:46:10;;;;;;;;;69.50;55.25;;;;;;;;5016725;28;52341;-53
2021/09/21 04:48:35;;;;;;;;;52.00;43.25;;;;;;;;5014064;28;51105;-53
2021/09/21 04:51:01;;;;;;;;;51.00;41.00;;;;;;;;5021640;28;51054;-53
2021/09/21 04:53:26;;;;;;;;;51.00;42.00;;;;;;;;5013674;28;51358;-55
2021/09/21 04:55:52;;;;;;;;;53.00;42.75;;;;;;;;5011048;28;50981;-56
2021/09/21 04:58:17;;;;;;;;;47.50;40.25;;;;;;;;5012486;28;51050;-55
2021/09/21 05:00:42;;;;;;;;;49.00;41.25;;;;;;;;5011485;28;51082;-55
2021/09/21 05:03:07;;;;;;;;;50.25;41.00;;;;;;;;5005654;28;51190;-54
2021/09/21 05:05:32;;;;;;;;;44.75;38.50;;;;;;;;5010960;28;50955;-55
2021/09/21 05:07:59;;;;;;;;;48.00;39.75;;;;;;;;5012826;28;51075;-54
2021/09/21 05:10:24;;;;;;;;;51.50;39.75;;;;;;;;5020470;28;50876;-54
2021/09/21 05:12:50;;;;;;;;;49.50;39.75;;;;;;;;5012344;28;51132;-53
2021/09/21 05:15:15;;;;;;;;;49.50;39.75;;;;;;;;5014715;28;51134;-53
2021/09/21 05:17:40;;;;;;;;;46.50;39.25;;;;;;;;5010242;28;51010;-57
2021/09/21 05:20:06;;;;;;;;;46.50;39.25;;;;;;;;5017855;28;51156;-53
2021/09/21 05:22:31;;;;;;;;;50.50;39.75;;;;;;;;5014784;28;51156;-55
2021/09/21 05:24:57;;;;;;;;;47.00;37.50;;;;;;;;5019071;28;51153;-54
2021/09/21 05:27:22;;;;;;;;;54.75;44.00;;;;;;;;5013154;28;51026;-52
2021/09/21 05:29:47;;;;;;;;;42.25;36.75;;;;;;;;5025892;28;50896;-53
2021/09/21 05:32:12;;;;;;;;;48.50;39.25;;;;;;;;5012261;28;51079;-53
2021/09/21 05:34:38;;;;;;;;;43.75;37.25;;;;;;;;5014616;28;50914;-54
2021/09/21 05:37:03;;;;;;;;;46.00;37.25;;;;;;;;5015254;28;51157;-54
2021/09/21 05:39:28;;;;;;;;;46.00;38.00;;;;;;;;5014945;28;50982;-54
2021/09/21 05:41:53;;;;;;;;;45.25;37.25;;;;;;;;5019064;28;51025;-53
2021/09/21 05:44:18;;;;;;;;;51.50;40.75;;;;;;;;5021602;28;51156;-56
2021/09/21 05:46:44;;;;;;;;;48.25;40.00;;;;;;;;5015147;28;50997;-54
2021/09/21 05:49:09;;;;;;;;;44.00;37.00;;;;;;;;5022852;28;50923;-51
2021/09/21 05:51:34;;;;;;;;;41.50;35.75;;;;;;;;5020574;28;50945;-54
2021/09/21 05:53:59;;;;;;;;;44.50;38.25;;;;;;;;5016607;28;51130;-53
2021/09/21 05:56:25;;;;;;;;;43.00;37.50;;;;;;;;4998132;28;52955;-54
2021/09/21 05:58:50;;;;;;;;;39.25;35.00;;;;;;;;5021425;28;51200;-54
2021/09/21 06:01:16;;;;;;;;;46.75;39.50;;;;;;;;5015986;28;51272;-54
2021/09/21 06:03:41;;;;;;;;;44.25;37.75;;;;;;;;5014456;28;51432;-54
2021/09/21 06:06:06;;;;;;;;;44.25;37.25;;;;;;;;5014092;28;51112;-54
2021/09/21 06:08:32;;;;;;;;;41.75;37.75;;;;;;;;4995252;28;51126;-53
2021/09/21 06:10:57;;;;;;;;;38.25;35.50;;;;;;;;5018893;28;50982;-53
2021/09/21 06:13:22;;;;;;;;;44.00;35.00;;;;;;;;5016993;28;51839;-54
2021/09/21 06:15:48;;;;;;;;;35.75;33.75;;;;;;;;5019438;28;51184;-53
2021/09/21 06:18:14;;;;;;;;;37.75;34.25;;;;;;;;5018431;28;51368;-53
2021/09/21 06:20:40;;;;;;;;;34.50;32.75;;;;;;;;5020662;28;51058;-53
2021/09/21 06:25:40;;;;;;;;;37.25;34.00;;;;;;;;5092856;22;51563;-55
2021/09/21 06:28:06;;;;;;;;;36.75;33.75;;;;;;;;5015109;28;51406;-55
2021/09/21 06:30:32;;;;;;;;;32.25;31.50;;;;;;;;5024447;28;51150;-54
2021/09/21 06:32:57;;;;;;;;;33.00;31.25;;;;;;;;5030893;28;53281;-54
2021/09/21 06:35:22;;;;;;;;;33.25;29.50;;;;;;;;5010512;28;51025;-54
2021/09/21 06:37:48;;;;;;;;;31.50;30.50;;;;;;;;5033370;28;51279;-59
2021/09/21 06:40:14;;;;;;;;;33.25;30.25;;;;;;;;5034398;28;51236;-57
2021/09/21 06:42:41;;;;;;;;;33.00;32.00;;;;;;;;5034317;28;51156;-55
2021/09/21 06:45:08;;;;;;;;;34.00;30.25;;;;;;;;5034384;28;51052;-53
2021/09/21 06:47:33;;;;;;;;;34.50;31.00;;;;;;;;5016426;28;51044;-54
2021/09/21 06:49:58;;;;;;;;;33.25;30.00;;;;;;;;5034485;28;51044;-57
2021/09/21 06:52:24;;;;;;;;;33.50;30.50;;;;;;;;5034069;28;52666;-55
2021/09/21 06:54:49;;;;;;;;;34.50;32.00;;;;;;;;5034343;28;50960;-54
2021/09/21 06:57:14;;;;;;;;;32.00;30.25;;;;;;;;5030877;28;51195;-56
2021/09/21 06:59:39;;;;;;;;;33.75;31.00;;;;;;;;5041700;28;50982;-55
2021/09/21 07:02:05;;;;;;;;;30.25;27.00;;;;;;;;5016556;28;51823;-56
2021/09/21 07:04:30;;;;;;;;;29.50;29.25;;;;;;;;5034320;28;51057;-53
2021/09/21 07:06:55;;;;;;;;;31.50;27.00;;;;;;;;5034430;28;50922;-56
2021/09/21 07:09:20;;;;;;;;;29.00;29.00;;;;;;;;5034612;28;50857;-56
2021/09/21 07:11:46;;;;;;;;;29.25;27.50;;;;;;;;5034336;28;50894;-56
2021/09/21 07:14:11;;;;;;;;;27.00;25.75;;;;;;;;5034599;28;51027;-55
2021/09/21 07:16:37;;;;;;;;;25.75;25.25;;;;;;;;5033978;28;51358;-55
2021/09/21 07:19:02;;;;;;;;;28.25;27.00;;;;;;;;5034584;28;51204;-55
2021/09/21 07:21:28;;;;;;;;;25.75;25.00;;;;;;;;5033982;28;51725;-53
2021/09/21 07:23:53;;;;;;;;;24.50;23.50;;;;;;;;5034076;28;50912;-54
2021/09/21 07:26:19;;;;;;;;;22.25;21.75;;;;;;;;5026019;28;51150;-55
2021/09/21 07:28:44;;;;;;;;;21.00;20.00;;;;;;;;5014401;28;51325;-54
2021/09/21 07:31:09;;;;;;;;;25.25;25.00;;;;;;;;4996360;28;53834;-54
2021/09/21 07:33:34;;;;;;;;;26.00;25.75;;;;;;;;5013927;28;51076;-53
2021/09/21 07:36:00;;;;;;;;;22.75;22.25;;;;;;;;5014142;28;51041;-55
2021/09/21 07:38:25;;;;;;;;;23.75;23.00;;;;;;;;5013844;28;51955;-54
2021/09/21 07:40:50;;;;;;;;;22.25;21.50;;;;;;;;5013192;28;51783;-54
2021/09/21 07:43:15;;;;;;;;;19.50;19.00;;;;;;;;5014159;28;51109;-55
2021/09/21 07:45:41;;;;;;;;;22.25;21.00;;;;;;;;5014010;28;51138;-54
2021/09/21 07:48:06;;;;;;;;;19.00;19.00;;;;;;;;5014161;28;50875;-54
2021/09/21 07:50:32;;;;;;;;;22.75;22.50;;;;;;;;5013087;28;51772;-55
2021/09/21 07:52:57;;;;;;;;;21.00;17.50;;;;;;;;5012767;28;51069;-54
2021/09/21 07:55:23;;;;;;;;;19.50;17.75;;;;;;;;4995787;28;51424;-54
2021/09/21 07:57:48;;;;;;;;;18.25;17.75;;;;;;;;5013999;28;51233;-54
2021/09/21 08:00:14;;;;;;;;;20.50;20.00;;;;;;;;5024463;28;51921;-55
2021/09/21 08:02:40;;;;;;;;;19.33;18.00;;;;;;;;5013844;28;51012;-54
2021/09/21 08:05:06;;;;;;;;;13.00;12.67;;;;;;;;5012489;28;50910;-54
2021/09/21 08:07:32;;;;;;;;;17.00;17.00;;;;;;;;4996095;28;51278;-55
2021/09/21 08:09:59;;;;;;;;;15.33;14.33;;;;;;;;5013096;28;51665;-55
2021/09/21 08:12:25;;;;;;;;;12.00;12.00;;;;;;;;5013574;28;51106;-54
2021/09/21 08:14:51;;;;;;;;;13.67;13.67;;;;;;;;5013604;28;51156;-54
2021/09/21 08:17:16;;;;;;;;;16.00;14.33;;;;;;;;5013476;28;51097;-54
2021/09/21 08:19:42;;;;;;;;;15.33;13.67;;;;;;;;5013277;28;51612;-54
2021/09/21 08:22:07;;;;;;;;;12.67;12.33;;;;;;;;5012004;28;51314;-55
2021/09/21 08:24:32;;;;;;;;;16.00;15.67;;;;;;;;5012517;28;51113;-54
2021/09/21 08:26:58;;;;;;;;;15.00;15.00;;;;;;;;5013520;28;50963;-55
2021/09/21 08:29:23;;;;;;;;;17.33;17.33;;;;;;;;5012821;28;51903;-55
2021/09/21 08:31:48;;;;;;;;;13.33;13.33;;;;;;;;5013052;28;51025;-55
2021/09/21 08:34:14;;;;;;;;;14.67;14.00;;;;;;;;5013001;28;51300;-56
2021/09/21 08:36:39;;;;;;;;;15.67;14.67;;;;;;;;5013356;28;50963;-56
2021/09/21 08:39:04;;;;;;;;;15.00;15.00;;;;;;;;5012519;28;50923;-55
2021/09/21 08:41:30;;;;;;;;;17.50;17.25;;;;;;;;5012586;28;50960;-54
2021/09/21 08:43:56;;;;;;;;;14.00;14.00;;;;;;;;5012993;28;51060;-55
2021/09/21 08:46:21;;;;;;;;;12.33;12.00;;;;;;;;5013315;28;51249;-55
2021/09/21 08:48:47;;;;;;;;;14.00;14.00;;;;;;;;5011232;28;50936;-56
2021/09/21 08:51:12;;;;;;;;;14.00;14.00;;;;;;;;5012937;28;50845;-55
2021/09/21 08:53:37;;;;;;;;;12.33;12.00;;;;;;;;5005081;28;51151;-56
2021/09/21 08:56:02;;;;;;;;;15.33;13.67;;;;;;;;5012495;28;51348;-55
2021/09/21 08:58:27;;;;;;;;;13.67;13.67;;;;;;;;4994588;28;54052;-54
2021/09/21 09:00:53;;;;;;;;;19.75;19.25;;;;;;;;5011789;28;51021;-56
2021/09/21 09:03:19;;;;;;;;;12.33;12.33;;;;;;;;5012688;28;51047;-56
2021/09/21 09:05:46;;;;;;;;;13.00;13.00;;;;;;;;5012996;28;51048;-55
2021/09/21 09:08:12;;;;;;;;;13.33;12.67;;;;;;;;5012159;28;52914;-55
2021/09/21 09:10:37;;;;;;;;;11.33;11.33;;;;;;;;5011952;28;51064;-56
2021/09/21 09:13:03;;;;;;;;;12.00;12.00;;;;;;;;5012165;28;50966;-56
2021/09/21 09:15:28;;;;;;;;;9.67;9.67;;;;;;;;5012525;28;51146;-55
2021/09/21 09:17:54;;;;;;;;;10.33;10.00;;;;;;;;5012847;28;51146;-55
2021/09/21 09:20:29;;;;;;;;;11.33;10.33;;;;;;;;5032618;28;50930;-56
2021/09/21 09:22:57;;;;;;;;;16.75;15.75;;;;;;;;5010044;28;51167;-56
2021/09/21 09:25:24;;;;;;;;;11.00;10.00;;;;;;;;4994063;28;51356;-60
2021/09/21 09:27:49;;;;;;;;;13.33;13.33;;;;;;;;5011675;28;52742;-56
2021/09/21 09:30:16;;;;;;;;;14.00;13.25;;;;;;;;5012205;28;50924;-60
2021/09/21 09:32:46;;;;;;;;;12.00;12.00;;;;;;;;5012250;28;51142;-56
2021/09/21 09:35:20;;;;;;;;;12.00;11.67;;;;;;;;5012489;28;51252;-56
2021/09/21 09:37:45;;;;;;;;;12.67;11.67;;;;;;;;5012037;28;51938;-54
2021/09/21 09:40:11;;;;;;;;;12.33;12.33;;;;;;;;4993927;28;51120;-55
2021/09/21 09:42:39;;;;;;;;;10.33;10.33;;;;;;;;4994527;28;50994;-55
2021/09/21 09:45:04;;;;;;;;;13.33;13.33;;;;;;;;5011814;28;51071;-58
2021/09/21 09:47:29;;;;;;;;;11.33;11.33;;;;;;;;5011859;28;50939;-56
2021/09/21 09:49:56;;;;;;;;;14.67;13.67;;;;;;;;5012007;28;51288;-54
2021/09/21 09:52:21;;;;;;;;;15.75;14.50;;;;;;;;5001060;28;51279;-54
2021/09/21 09:54:47;;;;;;;;;14.00;13.00;;;;;;;;5007791;28;51269;-56
2021/09/21 09:57:14;;;;;;;;;13.00;13.00;;;;;;;;5011949;28;51102;-55
2021/09/21 09:59:41;;;;;;;;;14.00;13.67;;;;;;;;5011639;28;51083;-56
2021/09/21 10:02:07;;;;;;;;;12.33;12.33;;;;;;;;5011609;28;51090;-55
2021/09/21 10:04:32;;;;;;;;;14.75;14.00;;;;;;;;5011901;28;51216;-55
2021/09/21 10:06:57;;;;;;;;;13.50;13.50;;;;;;;;5011854;28;51800;-56
2021/09/21 10:09:23;;;;;;;;;15.25;15.25;;;;;;;;5011622;28;50871;-55
2021/09/21 10:11:52;;;;;;;;;15.00;15.00;;;;;;;;5011849;28;50984;-56
2021/09/21 10:14:19;;;;;;;;;16.75;16.00;;;;;;;;5015190;28;50951;-56
2021/09/21 10:16:51;;;;;;;;;14.67;14.00;;;;;;;;5013632;28;51905;-56
2021/09/21 10:19:18;;;;;;;;;15.67;14.67;;;;;;;;5032633;28;51145;-56
2021/09/21 10:21:45;;;;;;;;;14.67;14.67;;;;;;;;5028029;28;51271;-58
2021/09/21 10:24:11;;;;;;;;;17.33;16.67;;;;;;;;5008003;28;51315;-56
2021/09/21 10:26:39;;;;;;;;;19.33;19.00;;;;;;;;5014017;28;53423;-55
2021/09/21 10:29:04;;;;;;;;;17.00;17.00;;;;;;;;5014265;28;51254;-55
2021/09/21 10:31:29;;;;;;;;;18.67;17.67;;;;;;;;4996864;28;51132;-55
2021/09/21 10:33:55;;;;;;;;;22.00;21.00;;;;;;;;5014615;28;51203;-56
2021/09/21 10:36:29;;;;;;;;;15.75;15.75;;;;;;;;5014349;28;51674;-56
2021/09/21 10:38:59;;;;;;;;;18.50;18.25;;;;;;;;5014457;28;51026;-56
2021/09/21 10:41:25;;;;;;;;;15.75;15.75;;;;;;;;5014510;28;50877;-55
2021/09/21 10:43:58;;;;;;;;;18.33;16.67;;;;;;;;5014660;28;50843;-56
2021/09/21 10:46:23;;;;;;;;;19.50;19.25;;;;;;;;5014003;28;51784;-55
2021/09/21 10:48:49;;;;;;;;;18.25;18.25;;;;;;;;5014390;28;51104;-55
2021/09/21 10:51:14;;;;;;;;;20.50;20.25;;;;;;;;5013894;28;51087;-55
2021/09/21 10:53:40;;;;;;;;;20.25;20.25;;;;;;;;5013642;28;51652;-56
2021/09/21 10:56:07;;;;;;;;;18.33;17.67;;;;;;;;5013738;28;51208;-56
2021/09/21 10:58:33;;;;;;;;;17.00;17.00;;;;;;;;5013722;28;50921;-56
2021/09/21 11:00:58;;;;;;;;;19.00;19.00;;;;;;;;5014090;28;50873;-57
2021/09/21 11:03:24;;;;;;;;;21.50;21.00;;;;;;;;5013698;28;50853;-55
2021/09/21 11:05:50;;;;;;;;;20.75;20.75;;;;;;;;4995410;28;53647;-55
2021/09/21 11:08:17;;;;;;;;;22.25;22.00;;;;;;;;5013679;28;51140;-56
2021/09/21 11:10:49;;;;;;;;;20.00;20.00;;;;;;;;5013603;28;50875;-56
2021/09/21 11:13:15;;;;;;;;;23.25;23.25;;;;;;;;5013480;28;51031;-54
2021/09/21 11:15:41;;;;;;;;;20.00;19.75;;;;;;;;5013397;28;51209;-57
2021/09/21 11:18:08;;;;;;;;;22.00;21.00;;;;;;;;5006254;28;51113;-54
2021/09/21 11:20:43;;;;;;;;;24.50;24.00;;;;;;;;5013159;28;51077;-56
2021/09/21 11:23:09;;;;;;;;;21.75;20.75;;;;;;;;5013587;28;51218;-55
2021/09/21 11:25:34;;;;;;;;;18.00;18.00;;;;;;;;5012159;28;52897;-55
2021/09/21 11:27:59;;;;;;;;;20.25;19.50;;;;;;;;5013025;28;51285;-56
2021/09/21 11:30:25;;;;;;;;;24.00;23.00;;;;;;;;5014039;28;51065;-55
2021/09/21 11:32:50;;;;;;;;;22.75;22.00;;;;;;;;5013552;28;50878;-57
2021/09/21 11:35:18;;;;;;;;;24.67;23.33;;;;;;;;5013215;28;51625;-55
2021/09/21 11:37:44;;;;;;;;;17.00;17.00;;;;;;;;5013265;28;50966;-55
2021/09/21 11:40:10;;;;;;;;;22.00;21.33;;;;;;;;5012855;28;51117;-54
2021/09/21 11:42:36;;;;;;;;;15.00;15.00;;;;;;;;5013187;28;51389;-54
2021/09/21 11:45:06;;;;;;;;;19.33;18.00;;;;;;;;5013050;28;51831;-54
2021/09/21 11:47:38;;;;;;;;;20.67;20.67;;;;;;;;5011553;28;50959;-55
2021/09/21 11:50:12;;;;;;;;;24.00;24.00;;;;;;;;5011063;28;51162;-57
2021/09/21 11:52:40;;;;;;;;;20.50;20.25;;;;;;;;5013056;28;51156;-55
2021/09/21 11:55:09;;;;;;;;;18.67;16.67;;;;;;;;5012574;28;51883;-55
2021/09/21 11:57:35;;;;;;;;;21.50;20.00;;;;;;;;5012917;28;51142;-55
2021/09/21 12:00:02;;;;;;;;;20.75;20.75;;;;;;;;5012718;28;51086;-55
2021/09/21 12:02:31;;;;;;;;;20.00;18.67;;;;;;;;4995344;28;51024;-54
2021/09/21 12:04:57;;;;;;;;;23.75;22.00;;;;;;;;5012690;28;51759;-56
2021/09/21 12:07:22;;;;;;;;;22.67;21.00;;;;;;;;5013050;28;50876;-55
2021/09/21 12:09:48;;;;;;;;;24.75;24.00;;;;;;;;5012860;28;50940;-54
2021/09/21 12:12:21;;;;;;;;;24.50;24.00;;;;;;;;5013365;28;51076;-55
2021/09/21 12:14:54;;;;;;;;;22.50;21.25;;;;;;;;5005695;28;51373;-55
2021/09/21 12:17:19;;;;;;;;;22.00;20.67;;;;;;;;5013761;28;50992;-54
2021/09/21 12:19:44;;;;;;;;;24.33;24.00;;;;;;;;5032796;28;51145;-55
2021/09/21 12:22:17;;;;;;;;;23.33;22.00;;;;;;;;5019356;28;51051;-55
2021/09/21 12:24:42;;;;;;;;;22.25;22.00;;;;;;;;5031961;28;51099;-55
2021/09/21 12:27:07;;;;;;;;;26.25;25.50;;;;;;;;5032541;28;51080;-55
2021/09/21 12:29:33;;;;;;;;;23.25;21.75;;;;;;;;5033020;28;51041;-57
2021/09/21 12:31:59;;;;;;;;;21.25;21.25;;;;;;;;5032605;28;51488;-55
2021/09/21 12:34:30;;;;;;;;;20.25;18.50;;;;;;;;5025570;28;51982;-54
2021/09/21 12:36:58;;;;;;;;;21.50;21.00;;;;;;;;5029137;28;51058;-54
2021/09/21 12:39:23;;;;;;;;;25.50;24.75;;;;;;;;5012268;28;51110;-54
2021/09/21 12:41:50;;;;;;;;;25.25;23.75;;;;;;;;5012633;28;50917;-55
2021/09/21 12:44:17;;;;;;;;;25.25;22.75;;;;;;;;4989095;28;52263;-53
2021/09/21 12:46:43;;;;;;;;;29.75;28.00;;;;;;;;4984009;28;51243;-54
2021/09/21 12:49:10;;;;;;;;;25.50;24.50;;;;;;;;4994219;28;51215;-55
2021/09/21 12:51:37;;;;;;;;;22.50;22.00;;;;;;;;4981584;28;51268;-54
2021/09/21 12:54:03;;;;;;;;;22.75;20.75;;;;;;;;4994131;28;51370;-55
2021/09/21 12:56:32;;;;;;;;;19.75;19.75;;;;;;;;4997944;28;52872;-54
2021/09/21 12:59:03;;;;;;;;;26.00;25.25;;;;;;;;4996721;28;51232;-54
2021/09/21 13:01:28;;;;;;;;;21.25;21.00;;;;;;;;4994857;28;51696;-55
2021/09/21 13:03:54;;;;;;;;;27.00;26.00;;;;;;;;4997337;28;51867;-54
2021/09/21 13:06:19;;;;;;;;;27.00;25.75;;;;;;;;4998187;28;51256;-55
2021/09/21 13:08:44;;;;;;;;;23.25;22.25;;;;;;;;4997334;28;51383;-55
2021/09/21 13:11:09;;;;;;;;;23.75;21.50;;;;;;;;4995257;28;51279;-56
2021/09/21 13:13:34;;;;;;;;;26.50;25.50;;;;;;;;4993071;28;51304;-54
2021/09/21 13:16:04;;;;;;;;;32.25;30.00;;;;;;;;4997092;28;51897;-55
2021/09/21 13:18:29;;;;;;;;;20.25;20.25;;;;;;;;4995773;28;51222;-55
2021/09/21 13:20:54;;;;;;;;;27.50;25.00;;;;;;;;4997658;28;51168;-54
2021/09/21 13:23:20;;;;;;;;;23.75;23.25;;;;;;;;4997726;28;51765;-55
2021/09/21 13:25:45;;;;;;;;;27.75;24.75;;;;;;;;4998023;28;51198;-55
2021/09/21 13:28:11;;;;;;;;;23.50;23.00;;;;;;;;4999909;28;52653;-56
2021/09/21 13:30:36;;;;;;;;;28.50;26.75;;;;;;;;4999590;28;51195;-56
2021/09/21 13:33:02;;;;;;;;;26.50;26.00;;;;;;;;4996757;28;51932;-55
2021/09/21 13:35:27;;;;;;;;;23.50;22.75;;;;;;;;5000220;28;51082;-55
2021/09/21 13:37:53;;;;;;;;;23.75;22.75;;;;;;;;5000181;28;51369;-54
2021/09/21 13:40:21;;;;;;;;;26.00;25.00;;;;;;;;4996094;28;51554;-55
2021/09/21 13:42:47;;;;;;;;;28.25;26.25;;;;;;;;4996204;28;53230;-54
2021/09/21 13:45:16;;;;;;;;;24.25;22.50;;;;;;;;4991826;28;53157;-55
2021/09/21 13:47:45;;;;;;;;;27.00;26.75;;;;;;;;4993234;28;51160;-55
2021/09/21 13:50:11;;;;;;;;;21.50;21.50;;;;;;;;4998790;28;51341;-55
2021/09/21 13:52:36;;;;;;;;;24.75;24.50;;;;;;;;5001902;28;52813;-55
2021/09/21 13:55:02;;;;;;;;;23.00;21.25;;;;;;;;4995145;28;51233;-55
2021/09/21 13:57:27;;;;;;;;;22.50;21.50;;;;;;;;4981678;28;53669;-55
2021/09/21 13:59:52;;;;;;;;;20.00;19.75;;;;;;;;5001433;28;51272;-54
2021/09/21 14:02:18;;;;;;;;;22.67;22.67;;;;;;;;4980696;28;53920;-54
2021/09/21 14:04:44;;;;;;;;;21.50;21.50;;;;;;;;5004240;28;51392;-55
2021/09/21 14:07:10;;;;;;;;;18.50;17.50;;;;;;;;5002736;28;51126;-55
2021/09/21 14:09:36;;;;;;;;;21.50;20.75;;;;;;;;4978987;28;51149;-56
2021/09/21 14:12:01;;;;;;;;;25.25;24.75;;;;;;;;5001934;28;51244;-56
2021/09/21 14:14:26;;;;;;;;;23.00;20.50;;;;;;;;5000373;28;51224;-55
2021/09/21 14:16:52;;;;;;;;;23.25;21.50;;;;;;;;5001984;28;51680;-55
2021/09/21 14:19:19;;;;;;;;;23.25;22.25;;;;;;;;5003703;28;51307;-55
2021/09/21 14:21:44;;;;;;;;;26.75;24.75;;;;;;;;5003003;28;52085;-56
2021/09/21 14:24:11;;;;;;;;;27.25;26.25;;;;;;;;5002491;28;51157;-55